createdAt,value
2018-03-02T00:09:26.670Z,-6.65
2018-03-02T00:19:24.025Z,-6.53
2018-03-02T00:29:21.771Z,-6.79
2018-03-02T00:39:20.227Z,-6.54
2018-03-02T00:49:18.919Z,-6.59
2018-03-02T00:59:15.620Z,-6.75
2018-03-02T01:09:11.355Z,-6.50
2018-03-02T01:19:08.750Z,-6.54
2018-03-02T01:29:05.041Z,-6.50
2018-03-02T01:39:01.560Z,-6.41
2018-03-02T01:48:59.910Z,-6.63
2018-03-02T01:58:57.808Z,-6.54
2018-03-02T02:08:55.169Z,-6.46
2018-03-02T02:18:49.841Z,-6.53
2018-03-02T02:28:47.800Z,-6.73
2018-03-02T02:38:44.954Z,-6.62
2018-03-02T02:48:42.034Z,-6.62
2018-03-02T02:58:37.920Z,-6.72
2018-03-02T03:08:35.009Z,-6.63
2018-03-02T03:18:31.618Z,-6.86
2018-03-02T03:28:29.420Z,-6.91
2018-03-02T03:38:28.208Z,-6.80
2018-03-02T03:48:25.956Z,-6.73
2018-03-02T03:58:24.249Z,-6.56
2018-03-02T04:08:21.781Z,-6.65
2018-03-02T04:18:19.994Z,-6.47
2018-03-02T04:28:14.953Z,-6.69
2018-03-02T04:38:12.564Z,-6.60
2018-03-02T04:48:10.838Z,-6.63
2018-03-02T04:58:07.226Z,-6.49
2018-03-02T05:08:04.131Z,-6.56
2018-03-02T05:18:01.009Z,-6.68
2018-03-02T05:27:57.197Z,-6.60
2018-03-02T05:37:53.627Z,-6.63
2018-03-02T05:47:50.747Z,-6.66
2018-03-02T05:57:48.421Z,-6.70
2018-03-02T06:07:46.862Z,-6.63
2018-03-02T06:17:43.076Z,-6.54
2018-03-02T06:27:41.549Z,-6.51
2018-03-02T06:37:36.529Z,-6.36
2018-03-02T06:47:30.501Z,-6.41
2018-03-02T06:57:26.344Z,-6.53
2018-03-02T07:07:23.813Z,-6.32
2018-03-02T07:17:20.062Z,-6.33
2018-03-02T07:27:18.198Z,-6.30
2018-03-02T07:37:15.749Z,-6.15
2018-03-02T07:47:14.319Z,-6.11
2018-03-02T07:57:11.125Z,-6.05
2018-03-02T08:07:05.268Z,-6.10
2018-03-02T08:16:59.951Z,-5.94
2018-03-02T08:26:52.292Z,-5.96
2018-03-02T08:36:48.014Z,-5.94
2018-03-02T08:46:44.075Z,-5.76
2018-03-02T08:56:39.712Z,-5.19
2018-03-02T09:06:38.083Z,-5.65
2018-03-02T09:16:36.309Z,-5.37
2018-03-02T09:26:34.362Z,-5.21
2018-03-02T09:36:30.939Z,-5.36
2018-03-02T09:46:28.839Z,-4.90
2018-03-02T09:56:25.496Z,-5.36
2018-03-02T10:06:21.799Z,-5.11
2018-03-02T10:16:19.440Z,-4.85
2018-03-02T10:26:16.834Z,-4.81
2018-03-02T10:36:10.196Z,-5.02
2018-03-02T10:46:07.681Z,-4.82
2018-03-02T10:56:02.078Z,-4.93
2018-03-02T11:05:58.804Z,-4.94
2018-03-02T11:15:57.864Z,-4.67
2018-03-02T11:25:51.674Z,-4.10
2018-03-02T11:35:48.327Z,-4.60
2018-03-02T11:45:44.516Z,-4.51
2018-03-02T11:55:40.156Z,-3.67
2018-03-02T12:05:37.955Z,-3.86
2018-03-02T12:15:34.150Z,-3.20
2018-03-02T12:25:24.769Z,-3.21
2018-03-02T12:35:22.833Z,-2.34
2018-03-02T12:45:19.625Z,-2.54
2018-03-02T12:55:10.493Z,-2.70
2018-03-02T13:05:07.229Z,-2.50
2018-03-02T13:15:02.898Z,-2.28
2018-03-02T13:24:57.191Z,-2.59
2018-03-02T13:34:51.595Z,-2.88
2018-03-02T13:44:47.867Z,-3.04
2018-03-02T13:54:43.878Z,-3.49
2018-03-02T14:04:27.644Z,-3.43
2018-03-02T14:14:21.863Z,-3.52
2018-03-02T14:24:17.973Z,-3.45
2018-03-02T14:34:04.707Z,-3.52
2018-03-02T14:44:00.918Z,-3.49
2018-03-02T14:53:57.927Z,-3.60
2018-03-02T15:03:54.576Z,-3.52
2018-03-02T15:13:47.562Z,-3.45
2018-03-02T15:23:42.509Z,-3.48
2018-03-02T15:33:35.399Z,-3.74
2018-03-02T15:43:32.322Z,-3.78
2018-03-02T15:53:27.393Z,-3.92
2018-03-02T16:03:24.856Z,-4.06
2018-03-02T16:13:20.601Z,-4.17
2018-03-02T16:23:13.539Z,-4.33
2018-03-02T16:33:10.229Z,-4.35
2018-03-02T16:43:07.595Z,-4.42
2018-03-02T16:53:02.457Z,-4.31
2018-03-02T17:02:58.891Z,-4.37
2018-03-02T17:12:56.662Z,-4.36
2018-03-02T17:22:53.974Z,-4.39
2018-03-02T17:32:49.434Z,-4.37
2018-03-02T17:42:46.327Z,-4.25
2018-03-02T17:52:41.881Z,-4.36
2018-03-02T18:02:37.294Z,-4.29
2018-03-02T18:12:32.483Z,-4.31
2018-03-02T18:22:30.276Z,-4.19
2018-03-02T18:32:28.162Z,-4.19
2018-03-02T18:42:25.985Z,-4.21
2018-03-02T18:52:21.207Z,-4.24
2018-03-02T19:02:19.368Z,-4.21
2018-03-02T19:12:17.531Z,-4.29
2018-03-02T19:22:10.648Z,-4.36
2018-03-02T19:32:03.929Z,-4.21
2018-03-02T19:41:57.551Z,-4.31
2018-03-02T19:51:53.181Z,-4.43
2018-03-02T20:01:48.374Z,-4.42
2018-03-02T20:11:44.493Z,-4.42
2018-03-02T20:21:38.524Z,-4.43
2018-03-02T20:31:33.526Z,-4.46
2018-03-02T20:41:30.408Z,-4.40
2018-03-02T20:51:25.083Z,-4.24
2018-03-02T21:01:21.230Z,-4.19
2018-03-02T21:11:16.467Z,-4.33
2018-03-02T21:21:10.946Z,-4.43
2018-03-02T21:31:07.324Z,-4.28
2018-03-02T21:41:04.732Z,-4.29
2018-03-02T21:51:00.155Z,-4.37
2018-03-02T22:00:56.797Z,-4.37
2018-03-02T22:10:52.855Z,-4.46
2018-03-02T22:20:48.596Z,-4.47
2018-03-02T22:30:46.683Z,-4.45
2018-03-02T22:40:43.639Z,-4.39
2018-03-02T22:50:40.569Z,-4.47
2018-03-02T23:00:38.160Z,-4.39
2018-03-02T23:10:34.716Z,-4.42
2018-03-02T23:20:32.054Z,-4.39
2018-03-02T23:30:28.438Z,-4.29
2018-03-02T23:40:23.569Z,-4.40
2018-03-02T23:50:20.358Z,-4.46
